createdAt,value
2022-08-21T00:00:21.833Z,13.37
2022-08-21T00:02:52.140Z,13.33
2022-08-21T00:05:20.008Z,13.28
2022-08-21T00:07:46.804Z,13.22
2022-08-21T00:10:14.578Z,13.22
2022-08-21T00:12:42.157Z,13.24
2022-08-21T00:15:12.067Z,13.19
2022-08-21T00:17:41.945Z,13.20
2022-08-21T00:20:10.888Z,13.26
2022-08-21T00:22:38.088Z,13.27
2022-08-21T00:25:06.812Z,13.26
2022-08-21T00:27:34.767Z,13.27
2022-08-21T00:30:02.066Z,13.27
2022-08-21T00:32:29.483Z,13.26
2022-08-21T00:34:56.730Z,13.25
2022-08-21T00:37:24.410Z,13.23
2022-08-21T00:39:51.410Z,13.21
2022-08-21T00:42:18.642Z,13.17
2022-08-21T00:44:47.881Z,13.12
2022-08-21T00:47:17.511Z,13.08
2022-08-21T00:49:44.425Z,13.01
2022-08-21T00:52:16.534Z,13.01
2022-08-21T00:54:46.590Z,12.99
2022-08-21T00:57:20.127Z,12.96
2022-08-21T00:59:50.622Z,12.97
2022-08-21T01:02:17.953Z,12.96
2022-08-21T01:04:44.908Z,12.99
2022-08-21T01:07:11.928Z,12.99
2022-08-21T01:09:38.807Z,13.01
2022-08-21T01:12:06.105Z,12.97
2022-08-21T01:14:33.555Z,12.96
2022-08-21T01:17:04.079Z,12.98
2022-08-21T01:19:31.347Z,13.01
2022-08-21T01:21:58.227Z,13.00
2022-08-21T01:24:25.012Z,13.06
2022-08-21T01:26:52.378Z,13.06
2022-08-21T01:29:59.188Z,13.04
2022-08-21T01:32:26.721Z,13.03
2022-08-21T01:34:54.224Z,13.07
2022-08-21T01:37:22.551Z,13.07
2022-08-21T01:39:50.058Z,13.00
2022-08-21T01:42:17.383Z,12.95
2022-08-21T01:44:44.765Z,12.94
2022-08-21T01:47:14.129Z,12.93
2022-08-21T01:49:41.627Z,12.95
2022-08-21T01:52:09.626Z,13.02
2022-08-21T01:54:37.327Z,13.15
2022-08-21T01:57:04.685Z,13.18
2022-08-21T01:59:32.076Z,13.17
2022-08-21T02:01:58.884Z,13.23
2022-08-21T02:04:25.816Z,13.27
2022-08-21T02:06:52.836Z,13.31
2022-08-21T02:09:20.020Z,13.33
2022-08-21T02:11:47.184Z,13.31
2022-08-21T02:14:16.149Z,13.29
2022-08-21T02:17:08.702Z,13.32
2022-08-21T02:19:40.314Z,13.36
2022-08-21T02:22:10.662Z,13.40
2022-08-21T02:24:50.158Z,13.44
2022-08-21T02:27:26.140Z,13.42
2022-08-21T02:29:55.738Z,13.41
2022-08-21T02:32:22.569Z,13.41
2022-08-21T02:34:49.914Z,13.38
2022-08-21T02:37:17.211Z,13.37
2022-08-21T02:39:44.074Z,13.36
2022-08-21T02:42:10.936Z,13.31
2022-08-21T02:44:37.794Z,13.33
2022-08-21T02:47:04.888Z,13.33
2022-08-21T02:49:31.695Z,13.28
2022-08-21T02:52:00.163Z,13.26
2022-08-21T02:54:26.988Z,13.29
2022-08-21T02:56:54.600Z,13.29
2022-08-21T02:59:21.373Z,13.23
2022-08-21T03:01:48.458Z,13.21
2022-08-21T03:04:15.493Z,13.20
2022-08-21T03:06:42.300Z,13.22
2022-08-21T03:09:09.107Z,13.24
2022-08-21T03:11:37.924Z,13.21
2022-08-21T03:14:06.298Z,13.20
2022-08-21T03:16:35.034Z,13.15
2022-08-21T03:19:02.394Z,13.13
2022-08-21T03:21:29.726Z,13.15
2022-08-21T03:23:56.587Z,13.13
2022-08-21T03:26:23.368Z,13.07
2022-08-21T03:28:51.645Z,13.06
2022-08-21T03:31:18.644Z,13.11
2022-08-21T03:33:45.618Z,13.12
2022-08-21T03:36:12.389Z,13.13
2022-08-21T03:38:39.364Z,13.11
2022-08-21T03:41:08.136Z,13.08
2022-08-21T03:43:36.020Z,13.07
2022-08-21T03:46:04.978Z,13.08
2022-08-21T03:48:32.288Z,13.15
2022-08-21T03:50:59.621Z,13.14
2022-08-21T03:53:26.829Z,13.13
2022-08-21T03:55:54.063Z,13.13
2022-08-21T03:58:25.287Z,13.16
2022-08-21T04:00:56.489Z,13.15
2022-08-21T04:03:23.569Z,13.12
2022-08-21T04:05:50.456Z,13.13
2022-08-21T04:08:21.266Z,13.10
2022-08-21T04:10:50.720Z,13.07
2022-08-21T04:13:17.885Z,13.08
2022-08-21T04:15:44.724Z,13.11
2022-08-21T04:18:12.029Z,13.13
2022-08-21T04:20:40.422Z,13.18
2022-08-21T04:23:08.003Z,13.15
2022-08-21T04:25:34.898Z,13.11
2022-08-21T04:28:02.814Z,13.11
2022-08-21T04:30:29.743Z,13.17
2022-08-21T04:32:58.303Z,13.17
2022-08-21T04:35:27.195Z,13.14
2022-08-21T04:37:54.204Z,13.16
2022-08-21T04:40:23.363Z,13.15
2022-08-21T04:42:55.773Z,13.17
2022-08-21T04:45:26.889Z,13.20
2022-08-21T04:47:56.644Z,13.24
2022-08-21T04:50:28.694Z,13.28
2022-08-21T04:53:06.389Z,13.48
2022-08-21T04:55:33.474Z,13.70
2022-08-21T04:58:00.923Z,13.87
2022-08-21T05:00:27.959Z,13.98
2022-08-21T05:03:00.167Z,13.99
2022-08-21T05:05:30.153Z,14.09
2022-08-21T05:08:00.163Z,14.15
2022-08-21T05:10:27.383Z,14.28
2022-08-21T05:12:55.186Z,14.35
2022-08-21T05:15:22.630Z,14.38
2022-08-21T05:17:52.574Z,14.34
2022-08-21T05:20:29.149Z,14.37
2022-08-21T05:22:56.328Z,14.33
2022-08-21T05:25:23.813Z,14.30
2022-08-21T05:27:52.197Z,14.33
2022-08-21T05:30:19.977Z,14.51
2022-08-21T05:32:48.469Z,14.66
2022-08-21T05:35:15.272Z,14.90
2022-08-21T05:37:42.042Z,15.07
2022-08-21T05:40:21.226Z,15.22
2022-08-21T05:42:54.933Z,15.24
2022-08-21T05:45:26.930Z,15.13
2022-08-21T05:48:16.862Z,15.03
2022-08-21T05:50:45.328Z,15.01
2022-08-21T05:53:12.762Z,15.02
2022-08-21T05:55:44.790Z,15.06
2022-08-21T05:58:19.212Z,15.16
2022-08-21T06:00:48.444Z,15.32
2022-08-21T06:03:25.094Z,15.71
2022-08-21T06:05:53.726Z,16.30
2022-08-21T06:08:22.366Z,16.85
2022-08-21T06:10:51.046Z,17.46
2022-08-21T06:13:19.779Z,18.11
2022-08-21T06:15:46.981Z,18.50
2022-08-21T06:18:14.002Z,18.83
2022-08-21T06:20:40.830Z,19.02
2022-08-21T06:23:07.719Z,19.16
2022-08-21T06:25:35.104Z,19.61
2022-08-21T06:28:03.551Z,19.78
2022-08-21T06:30:30.462Z,20.09
2022-08-21T06:32:57.329Z,20.31
2022-08-21T06:35:25.550Z,20.53
2022-08-21T06:37:52.511Z,20.61
2022-08-21T06:40:19.467Z,20.93
2022-08-21T06:42:46.353Z,21.07
2022-08-21T06:45:16.842Z,21.39
2022-08-21T06:47:43.592Z,21.47
2022-08-21T06:50:10.719Z,22.00
2022-08-21T06:52:38.593Z,22.33
2022-08-21T06:55:08.607Z,22.63
2022-08-21T06:57:35.936Z,22.80
2022-08-21T07:00:06.803Z,22.80
2022-08-21T07:02:34.583Z,22.87
2022-08-21T07:05:02.178Z,23.15
2022-08-21T07:07:46.414Z,23.45
2022-08-21T07:10:21.621Z,23.83
2022-08-21T07:13:00.777Z,23.99
2022-08-21T07:15:31.975Z,24.05
2022-08-21T07:18:00.657Z,24.59
2022-08-21T07:20:29.067Z,24.52
2022-08-21T07:22:58.656Z,24.72
2022-08-21T07:25:25.896Z,25.02
2022-08-21T07:27:52.842Z,24.78
2022-08-21T07:30:19.847Z,24.83
2022-08-21T07:32:46.697Z,24.53
2022-08-21T07:35:13.664Z,24.71
2022-08-21T07:37:40.606Z,24.93
2022-08-21T07:40:08.513Z,24.42
2022-08-21T07:42:35.324Z,24.59
2022-08-21T07:45:02.132Z,24.94
2022-08-21T07:47:41.296Z,24.95
2022-08-21T07:50:12.283Z,25.04
2022-08-21T07:52:41.275Z,24.93
2022-08-21T07:55:10.941Z,25.07
2022-08-21T07:57:38.189Z,25.27
2022-08-21T08:00:09.274Z,25.46
2022-08-21T08:02:41.793Z,26.00
2022-08-21T08:05:12.077Z,26.26
2022-08-21T08:07:39.613Z,26.57
2022-08-21T08:10:08.002Z,26.81
2022-08-21T08:12:40.182Z,27.27
2022-08-21T08:15:09.768Z,27.31
2022-08-21T08:17:38.721Z,27.03
2022-08-21T08:20:10.027Z,27.31
2022-08-21T08:22:38.640Z,27.27
2022-08-21T08:25:09.444Z,27.32
2022-08-21T08:27:36.736Z,27.20
2022-08-21T08:30:05.194Z,27.64
2022-08-21T08:32:32.569Z,28.08
2022-08-21T08:34:59.348Z,28.71
2022-08-21T08:37:30.968Z,28.05
2022-08-21T08:40:03.471Z,27.26
2022-08-21T08:42:35.664Z,27.08
2022-08-21T08:45:10.259Z,27.83
2022-08-21T08:47:43.070Z,27.63
2022-08-21T08:50:17.961Z,27.35
2022-08-21T08:52:52.113Z,26.74
2022-08-21T08:55:37.036Z,26.39
2022-08-21T08:58:04.606Z,25.84
2022-08-21T09:00:32.581Z,26.18
2022-08-21T09:03:02.545Z,25.98
2022-08-21T09:05:47.650Z,25.35
2022-08-21T09:08:21.477Z,24.54
2022-08-21T09:11:21.152Z,24.41
2022-08-21T09:13:50.925Z,24.00
2022-08-21T09:16:26.767Z,24.02
2022-08-21T09:19:08.708Z,23.95
2022-08-21T09:21:59.607Z,25.34
2022-08-21T09:24:37.402Z,25.96
2022-08-21T09:27:10.064Z,25.99
2022-08-21T09:29:43.640Z,27.25
2022-08-21T09:32:22.302Z,27.51
2022-08-21T09:35:09.310Z,26.43
2022-08-21T09:37:50.493Z,25.53
2022-08-21T09:40:43.130Z,25.78
2022-08-21T09:43:12.896Z,26.98
2022-08-21T09:45:42.838Z,27.82
2022-08-21T09:48:32.984Z,28.05
2022-08-21T09:51:33.810Z,27.89
2022-08-21T09:54:07.019Z,28.51
2022-08-21T09:56:56.021Z,28.96
2022-08-21T09:59:37.175Z,29.52
2022-08-21T10:02:32.570Z,29.92
2022-08-21T10:05:08.909Z,30.68
2022-08-21T10:07:38.758Z,30.19
2022-08-21T10:10:18.587Z,28.78
2022-08-21T10:13:05.066Z,27.90
2022-08-21T10:15:53.507Z,28.67
2022-08-21T10:18:42.412Z,29.96
2022-08-21T10:21:21.197Z,31.25
2022-08-21T10:24:00.130Z,31.95
2022-08-21T10:26:38.385Z,32.10
2022-08-21T10:29:39.855Z,32.03
2022-08-21T10:32:22.523Z,31.26
2022-08-21T10:35:11.642Z,30.08
2022-08-21T10:38:01.704Z,30.68
2022-08-21T10:40:36.253Z,31.72
2022-08-21T10:43:05.832Z,32.04
2022-08-21T10:46:14.022Z,31.54
2022-08-21T10:48:51.492Z,30.63
2022-08-21T10:51:29.003Z,31.15
2022-08-21T10:54:12.590Z,31.72
2022-08-21T10:56:42.193Z,32.01
2022-08-21T10:59:29.517Z,30.56
2022-08-21T11:02:10.011Z,30.94
2022-08-21T11:05:14.566Z,31.26
2022-08-21T11:07:55.964Z,31.34
2022-08-21T11:10:51.240Z,32.16
2022-08-21T11:13:44.435Z,31.47
2022-08-21T11:16:41.314Z,30.43
2022-08-21T11:19:29.006Z,28.79
2022-08-21T11:22:18.509Z,27.09
2022-08-21T11:25:07.341Z,26.34
2022-08-21T11:27:52.367Z,25.75
2022-08-21T11:30:19.694Z,25.47
2022-08-21T11:33:06.656Z,25.39
2022-08-21T11:35:55.238Z,25.15
2022-08-21T11:38:29.267Z,24.88
2022-08-21T11:41:18.223Z,24.31
2022-08-21T11:43:54.674Z,24.03
2022-08-21T11:46:46.315Z,23.55
2022-08-21T11:49:19.226Z,22.94
2022-08-21T11:52:09.027Z,22.47
2022-08-21T11:54:44.351Z,22.25
2022-08-21T11:57:23.147Z,22.11
2022-08-21T12:00:07.904Z,22.33
2022-08-21T12:02:56.380Z,22.38
2022-08-21T12:05:37.235Z,22.51
2022-08-21T12:08:14.489Z,22.61
2022-08-21T12:10:59.482Z,22.79
2022-08-21T12:13:40.648Z,23.92
2022-08-21T12:16:33.463Z,25.97
2022-08-21T12:19:23.543Z,25.41
2022-08-21T12:21:52.676Z,25.12
2022-08-21T12:24:29.448Z,25.77
2022-08-21T12:26:56.164Z,28.27
2022-08-21T12:29:25.238Z,27.95
2022-08-21T12:32:23.465Z,28.04
2022-08-21T12:35:23.880Z,29.67
2022-08-21T12:38:16.822Z,31.49
2022-08-21T12:40:57.645Z,30.27
2022-08-21T12:43:34.023Z,28.84
2022-08-21T12:46:01.835Z,27.82
2022-08-21T12:48:40.192Z,27.34
2022-08-21T12:51:14.053Z,26.23
2022-08-21T12:53:49.073Z,25.64
2022-08-21T12:56:19.221Z,25.08
2022-08-21T12:58:51.444Z,24.67
2022-08-21T13:01:50.232Z,24.38
2022-08-21T13:04:21.328Z,24.08
2022-08-21T13:06:52.667Z,24.05
2022-08-21T13:09:25.009Z,25.26
2022-08-21T13:11:52.861Z,25.62
2022-08-21T13:14:45.345Z,27.23
2022-08-21T13:17:23.428Z,26.46
2022-08-21T13:20:01.304Z,25.80
2022-08-21T13:22:33.829Z,25.01
2022-08-21T13:25:06.655Z,25.17
2022-08-21T13:27:35.127Z,24.58
2022-08-21T13:30:18.227Z,24.38
2022-08-21T13:32:48.445Z,26.14
2022-08-21T13:35:22.101Z,27.32
2022-08-21T13:37:52.709Z,27.35
2022-08-21T13:40:43.798Z,28.99
2022-08-21T13:43:21.329Z,26.95
2022-08-21T13:45:51.029Z,26.36
2022-08-21T13:48:18.289Z,27.42
2022-08-21T13:50:45.880Z,26.20
2022-08-21T13:53:33.028Z,26.10
2022-08-21T13:56:01.507Z,26.49
2022-08-21T13:58:46.899Z,27.52
2022-08-21T14:01:27.697Z,27.88
2022-08-21T14:04:01.941Z,26.99
2022-08-21T14:06:36.343Z,27.65
2022-08-21T14:09:11.285Z,28.31
2022-08-21T14:11:39.545Z,28.17
2022-08-21T14:14:23.231Z,29.57
2022-08-21T14:17:24.415Z,30.00
2022-08-21T14:19:49.529Z,27.18
2022-08-21T14:22:29.189Z,26.40
2022-08-21T14:25:31.435Z,26.47
2022-08-21T14:28:03.543Z,25.48
2022-08-21T14:30:38.906Z,24.66
2022-08-21T14:33:11.149Z,23.98
2022-08-21T14:35:38.333Z,23.54
2022-08-21T14:38:13.536Z,23.38
2022-08-21T14:40:41.461Z,23.46
2022-08-21T14:43:09.283Z,23.46
2022-08-21T14:45:37.619Z,24.24
2022-08-21T14:48:05.453Z,24.10
2022-08-21T14:50:32.310Z,23.72
2022-08-21T14:52:59.273Z,23.89
2022-08-21T14:55:27.356Z,26.19
2022-08-21T14:57:56.901Z,25.42
2022-08-21T15:00:27.150Z,24.30
2022-08-21T15:03:03.248Z,24.46
2022-08-21T15:05:33.712Z,25.13
2022-08-21T15:08:01.074Z,27.69
2022-08-21T15:10:28.449Z,28.18
2022-08-21T15:12:55.333Z,27.28
2022-08-21T15:15:22.466Z,25.99
2022-08-21T15:17:49.298Z,24.64
2022-08-21T15:20:16.259Z,25.27
2022-08-21T15:22:47.542Z,26.89
2022-08-21T15:25:14.837Z,28.09
2022-08-21T15:27:41.639Z,28.99
2022-08-21T15:30:08.939Z,27.05
2022-08-21T15:32:35.789Z,25.22
2022-08-21T15:35:03.478Z,23.96
2022-08-21T15:37:30.540Z,25.11
2022-08-21T15:39:57.461Z,25.46
2022-08-21T15:42:27.715Z,26.77
2022-08-21T15:44:56.957Z,26.02
2022-08-21T15:47:28.487Z,24.37
2022-08-21T15:49:55.337Z,23.45
2022-08-21T15:52:23.311Z,22.77
2022-08-21T15:54:50.804Z,22.47
2022-08-21T15:57:20.616Z,21.88
2022-08-21T15:59:51.074Z,21.51
2022-08-21T16:02:22.819Z,21.45
2022-08-21T16:04:49.921Z,21.60
2022-08-21T16:07:16.998Z,22.13
2022-08-21T16:09:44.091Z,22.52
2022-08-21T16:12:15.105Z,22.98
2022-08-21T16:14:41.939Z,23.11
2022-08-21T16:17:09.709Z,23.17
2022-08-21T16:19:37.617Z,23.03
2022-08-21T16:22:04.893Z,23.32
2022-08-21T16:24:31.766Z,23.41
2022-08-21T16:26:58.594Z,23.29
2022-08-21T16:29:30.790Z,23.06
2022-08-21T16:31:57.585Z,23.08
2022-08-21T16:34:25.009Z,23.11
2022-08-21T16:36:51.820Z,23.00
2022-08-21T16:39:18.849Z,22.78
2022-08-21T16:41:45.829Z,22.56
2022-08-21T16:44:12.836Z,22.49
2022-08-21T16:46:41.629Z,22.36
2022-08-21T16:49:10.089Z,22.00
2022-08-21T16:51:40.142Z,22.01
2022-08-21T16:54:06.973Z,21.80
2022-08-21T16:56:35.225Z,21.77
2022-08-21T16:59:05.275Z,21.58
2022-08-21T17:01:34.253Z,21.42
2022-08-21T17:04:01.233Z,21.50
2022-08-21T17:06:29.225Z,21.38
2022-08-21T17:08:57.057Z,21.35
2022-08-21T17:11:37.803Z,21.30
2022-08-21T17:14:22.069Z,20.97
2022-08-21T17:16:52.194Z,21.05
2022-08-21T17:19:20.049Z,21.07
2022-08-21T17:21:46.961Z,21.08
2022-08-21T17:24:15.584Z,21.18
2022-08-21T17:26:44.030Z,21.06
2022-08-21T17:29:14.584Z,20.80
2022-08-21T17:31:43.916Z,20.66
2022-08-21T17:34:11.579Z,20.64
2022-08-21T17:36:38.457Z,20.62
2022-08-21T17:39:05.516Z,20.49
2022-08-21T17:41:34.270Z,20.44
2022-08-21T17:44:06.284Z,20.44
2022-08-21T17:46:33.159Z,20.46
2022-08-21T17:48:59.933Z,20.40
2022-08-21T17:51:28.368Z,20.32
2022-08-21T17:53:55.141Z,20.19
2022-08-21T17:56:22.543Z,20.10
2022-08-21T17:58:51.760Z,20.01
2022-08-21T18:01:19.620Z,19.87
2022-08-21T18:03:47.533Z,19.80
2022-08-21T18:06:17.975Z,19.68
2022-08-21T18:08:46.169Z,19.54
2022-08-21T18:11:23.421Z,19.41
2022-08-21T18:13:52.961Z,19.21
2022-08-21T18:16:20.580Z,19.03
2022-08-21T18:18:49.282Z,18.89
2022-08-21T18:21:16.151Z,18.72
2022-08-21T18:23:45.264Z,18.58
2022-08-21T18:26:28.630Z,18.48
2022-08-21T18:29:00.329Z,18.29
2022-08-21T18:31:32.321Z,18.18
2022-08-21T18:34:02.642Z,18.08
2022-08-21T18:36:31.135Z,17.96
2022-08-21T18:39:13.480Z,17.84
2022-08-21T18:41:46.378Z,17.71
2022-08-21T18:44:15.087Z,17.59
2022-08-21T18:46:46.596Z,17.50
2022-08-21T18:49:13.416Z,17.36
2022-08-21T18:51:44.802Z,17.21
2022-08-21T18:54:13.022Z,17.08
2022-08-21T18:56:40.890Z,16.98
2022-08-21T18:59:08.160Z,16.85
2022-08-21T19:01:35.636Z,16.76
2022-08-21T19:04:02.992Z,16.68
2022-08-21T19:06:29.841Z,16.57
2022-08-21T19:08:56.740Z,16.55
2022-08-21T19:11:25.315Z,16.49
2022-08-21T19:13:53.607Z,16.40
2022-08-21T19:16:22.352Z,16.38
2022-08-21T19:18:49.643Z,16.29
2022-08-21T19:21:16.615Z,16.20
2022-08-21T19:23:48.164Z,16.08
2022-08-21T19:26:22.134Z,15.99
2022-08-21T19:28:52.544Z,15.97
2022-08-21T19:31:30.647Z,16.02
2022-08-21T19:34:22.121Z,16.03
2022-08-21T19:36:49.396Z,16.03
2022-08-21T19:39:18.363Z,16.05
2022-08-21T19:41:50.629Z,15.98
2022-08-21T19:44:21.468Z,15.96
2022-08-21T19:46:51.105Z,15.95
2022-08-21T19:49:22.157Z,15.91
2022-08-21T19:51:49.550Z,15.91
2022-08-21T19:54:29.218Z,15.89
2022-08-21T19:56:59.160Z,15.85
2022-08-21T19:59:31.117Z,15.81
2022-08-21T20:01:57.939Z,15.77
2022-08-21T20:04:24.917Z,15.74
2022-08-21T20:06:54.799Z,15.65
2022-08-21T20:09:21.997Z,15.63
2022-08-21T20:11:52.190Z,15.63
2022-08-21T20:14:26.636Z,15.64
2022-08-21T20:17:05.982Z,15.58
2022-08-21T20:19:32.919Z,15.56
2022-08-21T20:22:00.611Z,15.56
2022-08-21T20:24:28.465Z,15.55
2022-08-21T20:26:56.144Z,15.52
2022-08-21T20:29:31.469Z,15.48
2022-08-21T20:32:04.526Z,15.42
2022-08-21T20:34:32.201Z,15.41
2022-08-21T20:37:01.460Z,15.39
2022-08-21T20:39:28.652Z,15.39
2022-08-21T20:41:56.623Z,15.37
2022-08-21T20:44:27.787Z,15.36
2022-08-21T20:46:55.157Z,15.32
2022-08-21T20:49:27.770Z,15.30
2022-08-21T20:51:57.072Z,15.35
2022-08-21T20:54:31.854Z,15.38
2022-08-21T20:57:01.664Z,15.43
2022-08-21T20:59:35.226Z,15.46
2022-08-21T21:02:28.153Z,15.47
2022-08-21T21:04:59.237Z,15.50
2022-08-21T21:07:37.413Z,15.53
2022-08-21T21:10:10.927Z,15.50
2022-08-21T21:12:47.838Z,15.44
2022-08-21T21:15:27.894Z,15.36
2022-08-21T21:18:04.432Z,15.25
2022-08-21T21:20:45.859Z,15.16
2022-08-21T21:23:40.272Z,15.09
2022-08-21T21:26:15.225Z,15.06
2022-08-21T21:28:53.723Z,15.04
2022-08-21T21:31:20.566Z,15.02
2022-08-21T21:33:48.184Z,14.98
2022-08-21T21:36:24.428Z,15.00
2022-08-21T21:39:08.110Z,15.00
2022-08-21T21:41:37.479Z,15.02
2022-08-21T21:44:34.562Z,14.99
2022-08-21T21:47:16.806Z,14.95
2022-08-21T21:50:21.115Z,14.92
2022-08-21T21:53:05.205Z,14.91
2022-08-21T21:55:58.276Z,14.89
2022-08-21T21:58:44.153Z,14.89
2022-08-21T22:01:21.801Z,14.87
2022-08-21T22:04:17.054Z,14.88
2022-08-21T22:06:56.438Z,14.84
2022-08-21T22:09:43.060Z,14.80
2022-08-21T22:12:31.298Z,14.74
2022-08-21T22:14:58.061Z,14.66
2022-08-21T22:17:34.234Z,14.65
2022-08-21T22:20:07.689Z,14.72
2022-08-21T22:22:42.342Z,14.81
2022-08-21T22:25:21.320Z,14.90
2022-08-21T22:27:56.875Z,14.92
2022-08-21T22:30:45.363Z,14.93
2022-08-21T22:33:20.060Z,14.97
2022-08-21T22:35:51.607Z,15.02
2022-08-21T22:38:27.828Z,15.07
2022-08-21T22:44:24.157Z,15.16
2022-08-21T22:46:58.928Z,15.13
2022-08-21T22:49:29.387Z,15.10
2022-08-21T22:52:10.706Z,15.08
2022-08-21T22:54:40.919Z,15.04
2022-08-21T22:57:47.725Z,15.02
2022-08-21T23:00:37.097Z,15.06
2022-08-21T23:03:03.921Z,15.07
2022-08-21T23:05:30.886Z,15.06
2022-08-21T23:08:23.917Z,15.03
2022-08-21T23:10:58.033Z,14.99
2022-08-21T23:13:24.897Z,14.93
2022-08-21T23:16:17.801Z,14.79
2022-08-21T23:19:03.813Z,14.66
2022-08-21T23:22:13.644Z,14.70
2022-08-21T23:24:50.254Z,14.71
2022-08-21T23:27:35.971Z,14.71
2022-08-21T23:30:12.288Z,14.74
2022-08-21T23:32:44.611Z,14.74
2022-08-21T23:35:51.194Z,14.74
2022-08-21T23:38:53.532Z,14.72
2022-08-21T23:41:37.294Z,14.75
2022-08-21T23:44:07.080Z,14.74
2022-08-21T23:46:46.022Z,14.73
2022-08-21T23:49:31.261Z,14.69
2022-08-21T23:52:08.142Z,14.69
2022-08-21T23:54:56.641Z,14.67
2022-08-21T23:57:42.001Z,14.67
